Timmins/Victor M. Power
CYTS : now visible

Airfield :











YOU CAN JOIN US ON...

 
LOGIN :

Register | Disclaimer

   EN    FR    IT 

 









Legend :    VFR   Marginal VFR   IFR   Intensive IFR   Very Intensive IFR
Visi :
Ceiling :
>= 8 km
>= 3000ft
5 to 8 km
1000 to 3000 ft
1500m to 5 km
500 to 1000 ft
800 to 1500m
200 to 500 ft
< 800m
< 200 ft
Symbols :   Thunderstorms  Fog  Heavy snow  Heavy precipitations  Wind > 20 kt







- Airport Elevation : 967 ft
- IATA code : YTS


CYTS - Timmins/Victor M. Power

CURRENT METAR :
  • 210900Z 36005KT 15SM FEW010 SCT050 BKN070 BKN090 13/13 A2985 RMK SC2SC2AC1AC1 SLP110 DENSITY ALT 1100FT

EXPIRED METARs :
  • 210847Z 02005KT 15SM FEW004 SCT010 BKN050 BKN090 13/13 A2984 RMK SF1SC3SC1AC1 SLP108 DENSITY ALT 1100FT
  • 210819Z 01006KT 330V060 10SM -RA FEW004 SCT010 OVC060 14/14 A2984 RMK SF1SC3SC4 PRESRR SLP107 DENSITY ALT 1200FT
  • 210800Z 02007G15KT 8SM -RA FEW004 OVC010 15/14 A2982 RMK SF2SC6 SLP101 DENSITY ALT 1300FT
  • 210753Z 36011KT 10SM -RA FEW004 OVC010 15/15 A2983 RMK SF2SC6 PRESRR SLP102 DENSITY ALT 1300FT
  • 210742Z 03008KT 12SM -RA BKN010 OVC090 15/15 A2981 RMK SC7AC1 SLP098 DENSITY ALT 1400FT
  • 210727Z 03008KT 15SM BKN010 BKN090 16/16 A2981 RMK SF5AC2 SLP097 DENSITY ALT 1400FT
  • 210700Z 03004KT 15SM FEW011 SCT055 BKN090 16/16 A2980 RMK SF1SC2AC4 SLP093 DENSITY ALT 1400FT

TAF TAF CYTS
Valid from the 21 at 08:00 until the 21 at 20:00 UTC


210738Z 2108/2120 03005KT P6SM FEW010 BKN090
TEMPO 2108/2110 5SM -SHRA BR BKN010 OVC090
FM211000 34005KT P6SM BKN025
TEMPO 2110/2113 BKN012
BECMG 2113/2115 SCT025
FM211500 34010KT P6SM BKN040 RMK NXT FCST BY 211400Z
CZYZ FIR / North America



MET'MAP, your aeronautical weather chart ! - Copyright ORBIFLY December 2007 - Disclaimer

ORBIFLY MET'MAP TEAM :

Programming & Development : Alexandra Zaïnal
Concept & Development : Baudouin d'Aumeries
Co-Development & Prog : Marc-Olivier Méhu
Technical & hardware support : Manuel Goepfert

Contact : metmap@orbifly.com




SOURCES & CREDITS :

   NOAA       Earth
Advisory